sensor_id;sensor_type;location;lat;lon;timestamp;pressure;altitude;pressure_sealevel;temperature;humidity
53011;BME280;42803;55.762;38.084;2023-09-19T00:00:49;100137.06;;;5.94;100.00
53011;BME280;42803;55.762;38.084;2023-09-19T00:03:19;100140.44;;;5.93;100.00
53011;BME280;42803;55.762;38.084;2023-09-19T00:05:48;100138.75;;;5.94;100.00
53011;BME280;42803;55.762;38.084;2023-09-19T00:08:18;100136.41;;;5.88;100.00
53011;BME280;42803;55.762;38.084;2023-09-19T00:10:54;100130.97;;;5.94;100.00
53011;BME280;42803;55.762;38.084;2023-09-19T00:13:23;100139.09;;;5.97;100.00
53011;BME280;42803;55.762;38.084;2023-09-19T00:15:52;100136.19;;;6.02;100.00
53011;BME280;42803;55.762;38.084;2023-09-19T00:18:23;100139.13;;;6.05;100.00
53011;BME280;42803;55.762;38.084;2023-09-19T00:20:57;100142.16;;;6.01;100.00
53011;BME280;42803;55.762;38.084;2023-09-19T00:23:26;100139.56;;;6.01;100.00
53011;BME280;42803;55.762;38.084;2023-09-19T00:26:00;100141.38;;;6.02;100.00
53011;BME280;42803;55.762;38.084;2023-09-19T00:28:29;100136.97;;;6.01;100.00
53011;BME280;42803;55.762;38.084;2023-09-19T00:30:59;100142.47;;;6.04;100.00
53011;BME280;42803;55.762;38.084;2023-09-19T00:33:32;100145.06;;;6.04;100.00
53011;BME280;42803;55.762;38.084;2023-09-19T00:36:02;100139.44;;;6.08;100.00
53011;BME280;42803;55.762;38.084;2023-09-19T00:38:33;100134.91;;;6.15;100.00
53011;BME280;42803;55.762;38.084;2023-09-19T00:41:04;100137.50;;;6.15;100.00
53011;BME280;42803;55.762;38.084;2023-09-19T00:43:33;100136.75;;;6.16;100.00
53011;BME280;42803;55.762;38.084;2023-09-19T00:46:03;100132.91;;;6.12;100.00
53011;BME280;42803;55.762;38.084;2023-09-19T00:48:40;100133.16;;;6.06;100.00
53011;BME280;42803;55.762;38.084;2023-09-19T00:51:12;100131.69;;;6.08;100.00
53011;BME280;42803;55.762;38.084;2023-09-19T00:53:46;100131.56;;;6.57;100.00
53011;BME280;42803;55.762;38.084;2023-09-19T00:56:17;100131.34;;;6.39;100.00
53011;BME280;42803;55.762;38.084;2023-09-19T00:58:48;100133.81;;;6.13;100.00
53011;BME280;42803;55.762;38.084;2023-09-19T01:01:18;100140.66;;;6.03;100.00
53011;BME280;42803;55.762;38.084;2023-09-19T01:03:48;100133.31;;;5.99;100.00
53011;BME280;42803;55.762;38.084;2023-09-19T01:06:17;100137.41;;;5.97;100.00
53011;BME280;42803;55.762;38.084;2023-09-19T01:08:47;100142.00;;;6.00;100.00
53011;BME280;42803;55.762;38.084;2023-09-19T01:11:24;100143.25;;;6.03;100.00
53011;BME280;42803;55.762;38.084;2023-09-19T01:14:03;100141.72;;;6.05;100.00
53011;BME280;42803;55.762;38.084;2023-09-19T01:16:42;100135.94;;;6.08;100.00
53011;BME280;42803;55.762;38.084;2023-09-19T01:19:28;100133.06;;;6.14;100.00
53011;BME280;42803;55.762;38.084;2023-09-19T01:22:10;100132.47;;;6.16;100.00
53011;BME280;42803;55.762;38.084;2023-09-19T01:28:08;100134.59;;;6.12;100.00
53011;BME280;42803;55.762;38.084;2023-09-19T01:30:46;100131.69;;;6.08;100.00
53011;BME280;42803;55.762;38.084;2023-09-19T01:33:17;100135.03;;;6.07;100.00
53011;BME280;42803;55.762;38.084;2023-09-19T01:35:47;100128.50;;;6.11;100.00
53011;BME280;42803;55.762;38.084;2023-09-19T01:38:16;100139.00;;;6.13;100.00
53011;BME280;42803;55.762;38.084;2023-09-19T01:40:55;100134.16;;;6.16;100.00
53011;BME280;42803;55.762;38.084;2023-09-19T01:43:31;100133.72;;;6.20;100.00
53011;BME280;42803;55.762;38.084;2023-09-19T01:46:07;100123.03;;;6.25;100.00
53011;BME280;42803;55.762;38.084;2023-09-19T01:48:41;100125.53;;;6.32;100.00
53011;BME280;42803;55.762;38.084;2023-09-19T01:51:22;100117.28;;;6.37;100.00
53011;BME280;42803;55.762;38.084;2023-09-19T01:54:00;100118.72;;;6.42;100.00
53011;BME280;42803;55.762;38.084;2023-09-19T01:56:32;100119.16;;;6.46;100.00
53011;BME280;42803;55.762;38.084;2023-09-19T01:59:06;100113.84;;;6.53;100.00
53011;BME280;42803;55.762;38.084;2023-09-19T02:01:40;100109.00;;;6.56;100.00
53011;BME280;42803;55.762;38.084;2023-09-19T02:04:12;100109.59;;;6.63;100.00
53011;BME280;42803;55.762;38.084;2023-09-19T02:06:42;100109.59;;;6.63;100.00
53011;BME280;42803;55.762;38.084;2023-09-19T02:09:11;100118.91;;;6.61;100.00
53011;BME280;42803;55.762;38.084;2023-09-19T02:11:40;100116.91;;;6.58;100.00
53011;BME280;42803;55.762;38.084;2023-09-19T02:14:09;100105.91;;;6.52;100.00
53011;BME280;42803;55.762;38.084;2023-09-19T02:16:40;100111.72;;;6.49;100.00
53011;BME280;42803;55.762;38.084;2023-09-19T02:19:10;100109.38;;;6.44;100.00
53011;BME280;42803;55.762;38.084;2023-09-19T02:21:40;100101.91;;;6.38;100.00
53011;BME280;42803;55.762;38.084;2023-09-19T02:24:09;100099.91;;;6.35;100.00
53011;BME280;42803;55.762;38.084;2023-09-19T02:26:40;100097.31;;;6.35;100.00
53011;BME280;42803;55.762;38.084;2023-09-19T02:29:10;100105.09;;;6.35;100.00
53011;BME280;42803;55.762;38.084;2023-09-19T02:31:42;100112.91;;;6.44;100.00
53011;BME280;42803;55.762;38.084;2023-09-19T02:34:11;100114.31;;;6.49;100.00
53011;BME280;42803;55.762;38.084;2023-09-19T02:36:40;100109.59;;;6.54;100.00
53011;BME280;42803;55.762;38.084;2023-09-19T02:39:11;100110.81;;;6.57;100.00
53011;BME280;42803;55.762;38.084;2023-09-19T02:41:40;100110.97;;;6.59;100.00
53011;BME280;42803;55.762;38.084;2023-09-19T02:44:10;100105.94;;;6.61;100.00
53011;BME280;42803;55.762;38.084;2023-09-19T02:46:40;100100.75;;;6.61;100.00
53011;BME280;42803;55.762;38.084;2023-09-19T02:49:11;100095.25;;;6.57;100.00
53011;BME280;42803;55.762;38.084;2023-09-19T02:51:41;100094.16;;;6.55;100.00
53011;BME280;42803;55.762;38.084;2023-09-19T02:54:10;100092.47;;;6.56;100.00
53011;BME280;42803;55.762;38.084;2023-09-19T02:56:39;100092.47;;;6.56;100.00
53011;BME280;42803;55.762;38.084;2023-09-19T02:59:08;100092.03;;;6.60;100.00
53011;BME280;42803;55.762;38.084;2023-09-19T03:01:38;100089.44;;;6.60;100.00
53011;BME280;42803;55.762;38.084;2023-09-19T03:04:07;100092.22;;;6.62;100.00
53011;BME280;42803;55.762;38.084;2023-09-19T03:06:40;100092.97;;;6.61;100.00
53011;BME280;42803;55.762;38.084;2023-09-19T03:09:10;100092.97;;;6.61;100.00
53011;BME280;42803;55.762;38.084;2023-09-19T03:11:39;100092.22;;;6.62;100.00
53011;BME280;42803;55.762;38.084;2023-09-19T03:14:10;100096.16;;;6.58;100.00
53011;BME280;42803;55.762;38.084;2023-09-19T03:16:40;100103.63;;;6.55;100.00
53011;BME280;42803;55.762;38.084;2023-09-19T03:19:10;100105.63;;;6.57;100.00
53011;BME280;42803;55.762;38.084;2023-09-19T03:21:41;100104.53;;;6.55;100.00
53011;BME280;42803;55.762;38.084;2023-09-19T03:24:10;100105.44;;;6.56;100.00
53011;BME280;42803;55.762;38.084;2023-09-19T03:26:40;100102.59;;;6.62;100.00
53011;BME280;42803;55.762;38.084;2023-09-19T03:29:09;100109.00;;;6.74;100.00
53011;BME280;42803;55.762;38.084;2023-09-19T03:31:39;100112.38;;;6.81;100.00
53011;BME280;42803;55.762;38.084;2023-09-19T03:34:08;100104.00;;;6.84;100.00
53011;BME280;42803;55.762;38.084;2023-09-19T03:36:38;100098.34;;;6.88;100.00
53011;BME280;42803;55.762;38.084;2023-09-19T03:39:08;100105.09;;;6.95;100.00
53011;BME280;42803;55.762;38.084;2023-09-19T03:41:38;100108.00;;;7.06;100.00
53011;BME280;42803;55.762;38.084;2023-09-19T03:44:07;100098.06;;;7.11;100.00
53011;BME280;42803;55.762;38.084;2023-09-19T03:46:36;100094.41;;;7.18;100.00
53011;BME280;42803;55.762;38.084;2023-09-19T03:49:06;100099.28;;;7.23;100.00
53011;BME280;42803;55.762;38.084;2023-09-19T03:51:36;100088.88;;;7.32;100.00
53011;BME280;42803;55.762;38.084;2023-09-19T03:54:06;100090.72;;;7.42;100.00
53011;BME280;42803;55.762;38.084;2023-09-19T03:56:36;100093.63;;;7.45;100.00
53011;BME280;42803;55.762;38.084;2023-09-19T03:59:05;100089.03;;;7.42;100.00
53011;BME280;42803;55.762;38.084;2023-09-19T04:01:36;100092.25;;;7.40;100.00
53011;BME280;42803;55.762;38.084;2023-09-19T04:04:05;100093.47;;;7.35;100.00
53011;BME280;42803;55.762;38.084;2023-09-19T04:06:37;100087.38;;;7.34;100.00
53011;BME280;42803;55.762;38.084;2023-09-19T04:09:06;100091.66;;;7.33;100.00
53011;BME280;42803;55.762;38.084;2023-09-19T04:11:39;100095.59;;;7.39;100.00
53011;BME280;42803;55.762;38.084;2023-09-19T04:14:08;100097.44;;;7.48;100.00
53011;BME280;42803;55.762;38.084;2023-09-19T04:16:38;100102.19;;;7.52;100.00
53011;BME280;42803;55.762;38.084;2023-09-19T04:19:07;100099.13;;;7.48;100.00
53011;BME280;42803;55.762;38.084;2023-09-19T04:21:37;100093.31;;;7.50;100.00
53011;BME280;42803;55.762;38.084;2023-09-19T04:24:06;100092.84;;;7.54;100.00
53011;BME280;42803;55.762;38.084;2023-09-19T04:26:36;100082.75;;;7.57;100.00
53011;BME280;42803;55.762;38.084;2023-09-19T04:29:06;100091.59;;;7.68;100.00
53011;BME280;42803;55.762;38.084;2023-09-19T04:31:38;100084.25;;;7.73;100.00
53011;BME280;42803;55.762;38.084;2023-09-19T04:34:11;100084.22;;;7.90;100.00
53011;BME280;42803;55.762;38.084;2023-09-19T04:36:42;100071.66;;;7.95;100.00
53011;BME280;42803;55.762;38.084;2023-09-19T04:39:11;100066.75;;;7.98;100.00
53011;BME280;42803;55.762;38.084;2023-09-19T04:41:41;100071.34;;;7.92;100.00
53011;BME280;42803;55.762;38.084;2023-09-19T04:44:11;100078.63;;;8.04;100.00
53011;BME280;42803;55.762;38.084;2023-09-19T04:46:41;100078.09;;;8.26;100.00
53011;BME280;42803;55.762;38.084;2023-09-19T04:49:10;100066.56;;;8.41;100.00
53011;BME280;42803;55.762;38.084;2023-09-19T04:51:40;100062.28;;;8.42;100.00
53011;BME280;42803;55.762;38.084;2023-09-19T04:54:10;100068.91;;;8.57;100.00
53011;BME280;42803;55.762;38.084;2023-09-19T04:56:39;100067.91;;;8.74;100.00
53011;BME280;42803;55.762;38.084;2023-09-19T04:59:09;100056.03;;;8.86;100.00
53011;BME280;42803;55.762;38.084;2023-09-19T05:01:40;100059.47;;;8.95;100.00
53011;BME280;42803;55.762;38.084;2023-09-19T05:04:09;100046.81;;;9.09;100.00
53011;BME280;42803;55.762;38.084;2023-09-19T05:06:38;100044.72;;;9.34;100.00
53011;BME280;42803;55.762;38.084;2023-09-19T05:09:13;100053.88;;;9.68;100.00
53011;BME280;42803;55.762;38.084;2023-09-19T05:11:43;100053.47;;;9.92;100.00
53011;BME280;42803;55.762;38.084;2023-09-19T05:14:12;100051.03;;;10.14;100.00
53011;BME280;42803;55.762;38.084;2023-09-19T05:16:43;100043.66;;;10.29;100.00
53011;BME280;42803;55.762;38.084;2023-09-19T05:19:12;100041.72;;;10.37;100.00
53011;BME280;42803;55.762;38.084;2023-09-19T05:21:41;100035.59;;;10.57;100.00
53011;BME280;42803;55.762;38.084;2023-09-19T05:24:10;100034.81;;;10.68;100.00
53011;BME280;42803;55.762;38.084;2023-09-19T05:26:42;100036.09;;;10.83;100.00
53011;BME280;42803;55.762;38.084;2023-09-19T05:29:12;100048.53;;;10.96;100.00
53011;BME280;42803;55.762;38.084;2023-09-19T05:31:42;100039.25;;;11.00;100.00
53011;BME280;42803;55.762;38.084;2023-09-19T05:34:12;100052.03;;;11.07;100.00
53011;BME280;42803;55.762;38.084;2023-09-19T05:36:41;100047.31;;;11.13;100.00
53011;BME280;42803;55.762;38.084;2023-09-19T05:39:10;100045.50;;;11.02;100.00
53011;BME280;42803;55.762;38.084;2023-09-19T05:41:40;100050.75;;;10.91;100.00
53011;BME280;42803;55.762;38.084;2023-09-19T05:44:09;100051.53;;;10.80;100.00
53011;BME280;42803;55.762;38.084;2023-09-19T05:46:38;100042.66;;;10.78;100.00
53011;BME280;42803;55.762;38.084;2023-09-19T05:49:09;100042.66;;;10.78;100.00
53011;BME280;42803;55.762;38.084;2023-09-19T05:51:38;100044.34;;;10.78;100.00
53011;BME280;42803;55.762;38.084;2023-09-19T05:54:07;100042.78;;;10.69;100.00
53011;BME280;42803;55.762;38.084;2023-09-19T05:56:39;100042.13;;;10.72;100.00
53011;BME280;42803;55.762;38.084;2023-09-19T05:59:09;100034.44;;;10.73;100.00
53011;BME280;42803;55.762;38.084;2023-09-19T06:01:39;100032.47;;;10.91;100.00
53011;BME280;42803;55.762;38.084;2023-09-19T06:04:09;100027.47;;;11.05;100.00
53011;BME280;42803;55.762;38.084;2023-09-19T06:06:39;100035.13;;;11.23;100.00
53011;BME280;42803;55.762;38.084;2023-09-19T06:09:08;100031.19;;;11.39;100.00
53011;BME280;42803;55.762;38.084;2023-09-19T06:11:37;100035.41;;;11.59;100.00
53011;BME280;42803;55.762;38.084;2023-09-19T06:14:06;100035.56;;;11.82;100.00
53011;BME280;42803;55.762;38.084;2023-09-19T06:16:38;100043.16;;;11.89;100.00
53011;BME280;42803;55.762;38.084;2023-09-19T06:19:10;100035.56;;;11.82;100.00
53011;BME280;42803;55.762;38.084;2023-09-19T06:21:40;100034.28;;;12.09;100.00
53011;BME280;42803;55.762;38.084;2023-09-19T06:24:09;100038.56;;;12.19;100.00
53011;BME280;42803;55.762;38.084;2023-09-19T06:26:39;100033.06;;;12.16;100.00
53011;BME280;42803;55.762;38.084;2023-09-19T06:29:08;100038.91;;;12.24;100.00
53011;BME280;42803;55.762;38.084;2023-09-19T06:31:39;100039.16;;;12.27;100.00
53011;BME280;42803;55.762;38.084;2023-09-19T06:34:10;100032.66;;;12.22;100.00
53011;BME280;42803;55.762;38.084;2023-09-19T06:36:43;100028.69;;;12.60;100.00
53011;BME280;42803;55.762;38.084;2023-09-19T06:39:12;100026.59;;;12.78;100.00
53011;BME280;42803;55.762;38.084;2023-09-19T06:41:41;100012.25;;;13.20;100.00
53011;BME280;42803;55.762;38.084;2023-09-19T06:44:13;100013.66;;;13.38;100.00
53011;BME280;42803;55.762;38.084;2023-09-19T06:46:43;100011.97;;;13.51;100.00
53011;BME280;42803;55.762;38.084;2023-09-19T06:49:16;100017.75;;;13.70;100.00
53011;BME280;42803;55.762;38.084;2023-09-19T06:51:45;100005.69;;;14.09;100.00
53011;BME280;42803;55.762;38.084;2023-09-19T06:54:17;100008.66;;;14.38;100.00
53011;BME280;42803;55.762;38.084;2023-09-19T06:56:47;100008.56;;;14.62;100.00
53011;BME280;42803;55.762;38.084;2023-09-19T06:59:16;100008.59;;;14.75;100.00
53011;BME280;42803;55.762;38.084;2023-09-19T07:01:47;100017.13;;;14.84;100.00
53011;BME280;42803;55.762;38.084;2023-09-19T07:04:21;100011.66;;;14.95;99.36
53011;BME280;42803;55.762;38.084;2023-09-19T07:06:51;100008.34;;;15.10;99.31
53011;BME280;42803;55.762;38.084;2023-09-19T07:09:21;100011.31;;;15.15;98.62
53011;BME280;42803;55.762;38.084;2023-09-19T07:11:50;100001.56;;;15.14;97.72
53011;BME280;42803;55.762;38.084;2023-09-19T07:14:20;100001.88;;;14.92;98.06
53011;BME280;42803;55.762;38.084;2023-09-19T07:16:49;100002.75;;;14.79;99.14
53011;BME280;42803;55.762;38.084;2023-09-19T07:19:21;100009.34;;;14.61;100.00
53011;BME280;42803;55.762;38.084;2023-09-19T07:21:50;99989.81;;;14.69;100.00
53011;BME280;42803;55.762;38.084;2023-09-19T07:24:20;99999.78;;;14.61;99.83
53011;BME280;42803;55.762;38.084;2023-09-19T07:26:50;100002.94;;;14.69;100.00
53011;BME280;42803;55.762;38.084;2023-09-19T07:29:20;99999.34;;;14.94;100.00
53011;BME280;42803;55.762;38.084;2023-09-19T07:31:50;99991.28;;;15.04;98.67
53011;BME280;42803;55.762;38.084;2023-09-19T07:34:20;99997.66;;;15.21;98.32
53011;BME280;42803;55.762;38.084;2023-09-19T07:36:51;100000.66;;;15.14;97.59
53011;BME280;42803;55.762;38.084;2023-09-19T07:39:20;99994.59;;;15.15;98.60
53011;BME280;42803;55.762;38.084;2023-09-19T07:41:51;100009.09;;;15.34;98.66
53011;BME280;42803;55.762;38.084;2023-09-19T07:44:22;100005.53;;;15.47;96.63
53011;BME280;42803;55.762;38.084;2023-09-19T07:46:54;100000.38;;;15.62;95.99
53011;BME280;42803;55.762;38.084;2023-09-19T07:49:26;99994.69;;;15.82;95.48
53011;BME280;42803;55.762;38.084;2023-09-19T07:51:56;100004.44;;;15.83;94.33
53011;BME280;42803;55.762;38.084;2023-09-19T07:54:26;99998.41;;;15.99;94.49
53011;BME280;42803;55.762;38.084;2023-09-19T07:56:58;99999.03;;;16.23;94.29
53011;BME280;42803;55.762;38.084;2023-09-19T07:59:28;99991.69;;;16.32;92.49
53011;BME280;42803;55.762;38.084;2023-09-19T08:01:57;99980.38;;;16.33;92.24
53011;BME280;42803;55.762;38.084;2023-09-19T08:04:28;99981.03;;;16.59;91.49
53011;BME280;42803;55.762;38.084;2023-09-19T08:07:02;99971.19;;;16.85;90.67
53011;BME280;42803;55.762;38.084;2023-09-19T08:09:32;99962.81;;;17.21;89.38
53011;BME280;42803;55.762;38.084;2023-09-19T08:12:03;99954.28;;;17.57;87.89
53011;BME280;42803;55.762;38.084;2023-09-19T08:14:33;99957.75;;;17.87;85.70
53011;BME280;42803;55.762;38.084;2023-09-19T08:17:03;99961.22;;;18.18;84.70
53011;BME280;42803;55.762;38.084;2023-09-19T08:19:35;99964.53;;;18.14;83.17
53011;BME280;42803;55.762;38.084;2023-09-19T08:22:10;99953.53;;;18.56;82.29
53011;BME280;42803;55.762;38.084;2023-09-19T08:24:39;99953.06;;;18.97;79.90
53011;BME280;42803;55.762;38.084;2023-09-19T08:27:11;99946.34;;;19.21;78.92
53011;BME280;42803;55.762;38.084;2023-09-19T08:29:41;99938.78;;;19.11;79.52
53011;BME280;42803;55.762;38.084;2023-09-19T08:32:20;99939.91;;;18.98;78.64
53011;BME280;42803;55.762;38.084;2023-09-19T08:34:57;99948.47;;;18.93;79.69
53011;BME280;42803;55.762;38.084;2023-09-19T08:37:27;99947.78;;;18.97;79.89
53011;BME280;42803;55.762;38.084;2023-09-19T08:39:59;99935.63;;;19.01;79.26
53011;BME280;42803;55.762;38.084;2023-09-19T08:42:32;99938.06;;;18.80;79.00
53011;BME280;42803;55.762;38.084;2023-09-19T08:45:20;99938.97;;;18.80;80.29
53011;BME280;42803;55.762;38.084;2023-09-19T08:48:02;99932.78;;;18.63;80.17
53011;BME280;42803;55.762;38.084;2023-09-19T08:50:42;99932.50;;;18.91;80.81
53011;BME280;42803;55.762;38.084;2023-09-19T08:53:17;99931.63;;;18.58;80.61
53011;BME280;42803;55.762;38.084;2023-09-19T08:55:51;99929.34;;;18.48;81.40
53011;BME280;42803;55.762;38.084;2023-09-19T08:58:34;99937.78;;;18.41;81.93
53011;BME280;42803;55.762;38.084;2023-09-19T09:01:13;99941.91;;;18.19;81.82
53011;BME280;42803;55.762;38.084;2023-09-19T09:03:45;99928.47;;;17.82;83.46
53011;BME280;42803;55.762;38.084;2023-09-19T09:06:19;99927.19;;;17.75;84.99
53011;BME280;42803;55.762;38.084;2023-09-19T09:08:50;99917.91;;;17.67;84.61
53011;BME280;42803;55.762;38.084;2023-09-19T09:11:21;99922.41;;;17.22;85.50
53011;BME280;42803;55.762;38.084;2023-09-19T09:13:53;99917.84;;;17.20;86.89
53011;BME280;42803;55.762;38.084;2023-09-19T09:16:30;99927.25;;;17.00;87.89
53011;BME280;42803;55.762;38.084;2023-09-19T09:19:00;99927.47;;;16.73;89.97
53011;BME280;42803;55.762;38.084;2023-09-19T09:21:32;99925.53;;;16.56;91.17
53011;BME280;42803;55.762;38.084;2023-09-19T09:24:28;99927.28;;;16.27;93.68
53011;BME280;42803;55.762;38.084;2023-09-19T09:26:58;99914.47;;;15.91;97.09
53011;BME280;42803;55.762;38.084;2023-09-19T09:29:52;99914.75;;;15.67;100.00
53011;BME280;42803;55.762;38.084;2023-09-19T09:32:28;99912.06;;;15.39;100.00
53011;BME280;42803;55.762;38.084;2023-09-19T09:35:13;99916.53;;;15.27;100.00
53011;BME280;42803;55.762;38.084;2023-09-19T09:38:01;99916.22;;;15.09;100.00
53011;BME280;42803;55.762;38.084;2023-09-19T09:40:46;99916.66;;;15.15;100.00
53011;BME280;42803;55.762;38.084;2023-09-19T09:43:32;99911.28;;;15.27;100.00
53011;BME280;42803;55.762;38.084;2023-09-19T09:46:08;99915.59;;;15.40;100.00
53011;BME280;42803;55.762;38.084;2023-09-19T09:49:22;99904.72;;;15.62;100.00
53011;BME280;42803;55.762;38.084;2023-09-19T09:52:00;99895.56;;;15.83;100.00
53011;BME280;42803;55.762;38.084;2023-09-19T09:54:58;99896.50;;;16.26;100.00
53011;BME280;42803;55.762;38.084;2023-09-19T09:57:33;99897.72;;;16.61;100.00
53011;BME280;42803;55.762;38.084;2023-09-19T10:00:19;99894.59;;;16.98;98.38
53011;BME280;42803;55.762;38.084;2023-09-19T10:03:02;99895.84;;;17.19;95.86
53011;BME280;42803;55.762;38.084;2023-09-19T10:05:46;99888.50;;;17.45;95.08
53011;BME280;42803;55.762;38.084;2023-09-19T10:08:27;99890.19;;;17.59;94.20
53011;BME280;42803;55.762;38.084;2023-09-19T10:11:15;99886.56;;;17.73;93.83
53011;BME280;42803;55.762;38.084;2023-09-19T10:13:56;99879.66;;;17.75;92.69
53011;BME280;42803;55.762;38.084;2023-09-19T10:16:32;99872.41;;;17.88;92.99
53011;BME280;42803;55.762;38.084;2023-09-19T10:19:20;99874.22;;;18.05;92.80
53011;BME280;42803;55.762;38.084;2023-09-19T10:21:54;99865.78;;;18.12;92.36
53011;BME280;42803;55.762;38.084;2023-09-19T10:24:29;99878.50;;;18.19;92.71
53011;BME280;42803;55.762;38.084;2023-09-19T10:27:15;99874.03;;;18.18;91.97
53011;BME280;42803;55.762;38.084;2023-09-19T10:29:54;99865.38;;;18.21;91.54
53011;BME280;42803;55.762;38.084;2023-09-19T10:32:25;99868.16;;;18.40;89.15
53011;BME280;42803;55.762;38.084;2023-09-19T10:35:01;99871.19;;;18.48;87.69
53011;BME280;42803;55.762;38.084;2023-09-19T10:37:41;99867.34;;;18.59;87.02
53011;BME280;42803;55.762;38.084;2023-09-19T10:40:18;99860.22;;;18.92;86.81
53011;BME280;42803;55.762;38.084;2023-09-19T10:43:15;99857.94;;;19.36;84.11
53011;BME280;42803;55.762;38.084;2023-09-19T10:45:50;99855.72;;;19.82;82.00
53011;BME280;42803;55.762;38.084;2023-09-19T10:48:35;99857.09;;;20.32;80.26
53011;BME280;42803;55.762;38.084;2023-09-19T10:51:14;99851.81;;;20.73;77.24
53011;BME280;42803;55.762;38.084;2023-09-19T10:53:55;99853.59;;;20.53;77.02
53011;BME280;42803;55.762;38.084;2023-09-19T10:56:32;99846.41;;;20.50;77.10
53011;BME280;42803;55.762;38.084;2023-09-19T10:59:10;99849.97;;;20.72;77.07
53011;BME280;42803;55.762;38.084;2023-09-19T11:01:48;99841.91;;;20.68;76.93
53011;BME280;42803;55.762;38.084;2023-09-19T11:04:35;99837.03;;;20.58;77.33
53011;BME280;42803;55.762;38.084;2023-09-19T11:07:14;99835.00;;;20.12;77.68
53011;BME280;42803;55.762;38.084;2023-09-19T11:09:49;99838.53;;;19.92;79.20
53011;BME280;42803;55.762;38.084;2023-09-19T11:18:53;99819.41;;;20.39;79.17
53011;BME280;42803;55.762;38.084;2023-09-19T11:22:07;99826.03;;;20.30;79.22
53011;BME280;42803;55.762;38.084;2023-09-19T11:24:56;99820.16;;;20.37;79.19
53011;BME280;42803;55.762;38.084;2023-09-19T11:30:51;99821.44;;;19.66;79.94
53011;BME280;42803;55.762;38.084;2023-09-19T11:33:27;99816.19;;;19.87;80.51
53011;BME280;42803;55.762;38.084;2023-09-19T11:36:18;99819.03;;;20.11;79.45
53011;BME280;42803;55.762;38.084;2023-09-19T11:39:25;99815.91;;;20.40;78.75
53011;BME280;42803;55.762;38.084;2023-09-19T11:48:43;99810.94;;;20.90;77.68
53011;BME280;42803;55.762;38.084;2023-09-19T11:51:26;99814.59;;;21.14;76.95
53011;BME280;42803;55.762;38.084;2023-09-19T11:54:29;99810.81;;;21.77;74.87
53011;BME280;42803;55.762;38.084;2023-09-19T11:57:20;99814.03;;;22.14;73.27
53011;BME280;42803;55.762;38.084;2023-09-19T12:00:00;99809.81;;;22.47;72.06
53011;BME280;42803;55.762;38.084;2023-09-19T12:02:47;99813.50;;;22.25;71.54
53011;BME280;42803;55.762;38.084;2023-09-19T12:05:34;99808.59;;;22.37;72.52
53011;BME280;42803;55.762;38.084;2023-09-19T12:08:21;99796.13;;;22.10;71.75
53011;BME280;42803;55.762;38.084;2023-09-19T12:10:57;99798.56;;;21.56;73.05
53011;BME280;42803;55.762;38.084;2023-09-19T12:13:33;99792.22;;;21.30;74.84
53011;BME280;42803;55.762;38.084;2023-09-19T12:16:19;99789.44;;;21.27;75.60
53011;BME280;42803;55.762;38.084;2023-09-19T12:19:28;99786.00;;;21.07;76.19
53011;BME280;42803;55.762;38.084;2023-09-19T12:22:07;99784.19;;;20.84;77.05
53011;BME280;42803;55.762;38.084;2023-09-19T12:25:15;99778.16;;;20.67;77.22
53011;BME280;42803;55.762;38.084;2023-09-19T12:28:17;99773.88;;;20.71;77.83
53011;BME280;42803;55.762;38.084;2023-09-19T12:30:47;99768.59;;;20.71;77.74
53011;BME280;42803;55.762;38.084;2023-09-19T12:33:29;99769.25;;;20.65;78.08
53011;BME280;42803;55.762;38.084;2023-09-19T12:36:01;99773.25;;;20.55;78.60
53011;BME280;42803;55.762;38.084;2023-09-19T12:39:10;99760.16;;;20.39;79.25
53011;BME280;42803;55.762;38.084;2023-09-19T12:41:50;99763.38;;;20.11;80.08
53011;BME280;42803;55.762;38.084;2023-09-19T12:44:33;99757.06;;;20.07;80.76
53011;BME280;42803;55.762;38.084;2023-09-19T12:47:16;99748.50;;;20.14;81.98
53011;BME280;42803;55.762;38.084;2023-09-19T12:50:08;99746.09;;;20.19;81.71
53011;BME280;42803;55.762;38.084;2023-09-19T12:52:52;99744.50;;;20.03;82.31
53011;BME280;42803;55.762;38.084;2023-09-19T12:55:30;99742.81;;;20.05;82.56
53011;BME280;42803;55.762;38.084;2023-09-19T12:58:14;99740.50;;;20.13;82.37
53011;BME280;42803;55.762;38.084;2023-09-19T13:00:49;99736.50;;;20.02;83.12
53011;BME280;42803;55.762;38.084;2023-09-19T13:03:29;99735.31;;;19.95;82.91
53011;BME280;42803;55.762;38.084;2023-09-19T13:06:02;99741.78;;;19.81;83.32
53011;BME280;42803;55.762;38.084;2023-09-19T13:08:48;99735.91;;;19.68;83.68
53011;BME280;42803;55.762;38.084;2023-09-19T13:11:22;99737.47;;;19.63;84.43
53011;BME280;42803;55.762;38.084;2023-09-19T13:14:23;99737.28;;;19.60;84.85
53011;BME280;42803;55.762;38.084;2023-09-19T13:17:06;99736.03;;;19.33;86.20
53011;BME280;42803;55.762;38.084;2023-09-19T13:19:48;99732.31;;;19.10;87.38
53011;BME280;42803;55.762;38.084;2023-09-19T13:22:42;99730.00;;;18.98;88.53
53011;BME280;42803;55.762;38.084;2023-09-19T13:25:29;99721.16;;;18.97;88.83
53011;BME280;42803;55.762;38.084;2023-09-19T13:28:10;99725.06;;;19.06;89.07
53011;BME280;42803;55.762;38.084;2023-09-19T13:30:45;99713.09;;;19.14;89.76
53011;BME280;42803;55.762;38.084;2023-09-19T13:33:19;99712.91;;;19.29;88.83
53011;BME280;42803;55.762;38.084;2023-09-19T13:35:51;99716.66;;;19.34;89.11
53011;BME280;42803;55.762;38.084;2023-09-19T13:38:30;99708.16;;;19.41;89.00
53011;BME280;42803;55.762;38.084;2023-09-19T13:41:07;99707.47;;;19.45;88.90